Saint-Michel-Des-Saints, Canada
Current Conditions -  °F | °C
As of 1:03 AM on Sunday 26 Oct 2014 (Local Time) from CYRQ Reporting Station
Light Rain Light Rain  
Wind Chill: 46°   Ceiling: 500
Heat Index: 48°   Visibility: 2.2mi
Dew Point: 46°   Wind: 5mph
Humidity: 93%   Direction: 230°SW
Pressure: 29.36"   Gusts: NA
Location:  46.67°N, 73.92°W
Report Text: CYRQ 260503Z AUTO 23004KT 2 1/4SM -RA BR OVC005 09/08 A2936 RMK SLP944
Loading
Personal Weather Stations






























Interactive Weather Map
Tropical Storm Tracking
New forecast layout! Learn more

10-Day Weather Forecast

Advertisements
Track Severe Weather on mobile